Sumatra, Florida
Current Conditions -  °F | °C
As of 1:53 AM on Wednesday 22 Oct 2014 (Local Time) from KAAF Reporting Station
Clear Clear  
Wind Chill: 63°   Ceiling: Unl
Heat Index: 63°   Visibility: 10mi
Dew Point: 57°   Wind: 5mph
Humidity: 81%   Direction: 20°NNE
Pressure: 29.97"   Gusts: NA
Location:  30.02°N, 84.98°W
Report Text: KAAF 220553Z AUTO 02004KT 10SM CLR 17/14 A2997 RMK AO2 SLP150 T01720139 10222 20167 56009 TSNO
Loading
Personal Weather Stations






























Interactive Weather Map
Tropical Storm Tracking
New forecast layout! Learn more

10-Day Weather Forecast

Advertisements
Track Severe Weather on mobile